sensor_id;sensor_type;location;lat;lon;timestamp;P1;durP1;ratioP1;P2;durP2;ratioP2
18623;SDS011;9441;51.420;7.036;2023-06-01T00:00:38;10.18;;;3.78;;
18623;SDS011;9441;51.420;7.036;2023-06-01T00:01:42;7.13;;;3.60;;
18623;SDS011;9441;51.420;7.036;2023-06-01T00:02:43;7.15;;;3.60;;
18623;SDS011;9441;51.420;7.036;2023-06-01T00:03:47;9.63;;;4.00;;
18623;SDS011;9441;51.420;7.036;2023-06-01T00:04:48;9.07;;;4.13;;
18623;SDS011;9441;51.420;7.036;2023-06-01T00:05:51;14.73;;;4.40;;
18623;SDS011;9441;51.420;7.036;2023-06-01T00:06:52;9.25;;;4.20;;
18623;SDS011;9441;51.420;7.036;2023-06-01T00:07:55;9.38;;;4.15;;
18623;SDS011;9441;51.420;7.036;2023-06-01T00:08:56;14.82;;;5.00;;
18623;SDS011;9441;51.420;7.036;2023-06-01T00:09:59;7.50;;;3.80;;
18623;SDS011;9441;51.420;7.036;2023-06-01T00:11:00;11.93;;;4.05;;
18623;SDS011;9441;51.420;7.036;2023-06-01T00:12:03;13.50;;;4.43;;
18623;SDS011;9441;51.420;7.036;2023-06-01T00:13:05;8.07;;;4.60;;
18623;SDS011;9441;51.420;7.036;2023-06-01T00:14:08;7.93;;;4.45;;
18623;SDS011;9441;51.420;7.036;2023-06-01T00:15:09;11.98;;;4.43;;
18623;SDS011;9441;51.420;7.036;2023-06-01T00:16:12;14.27;;;4.40;;
18623;SDS011;9441;51.420;7.036;2023-06-01T00:17:13;8.60;;;4.60;;
18623;SDS011;9441;51.420;7.036;2023-06-01T00:18:16;7.53;;;4.30;;
18623;SDS011;9441;51.420;7.036;2023-06-01T00:19:19;9.40;;;4.53;;
18623;SDS011;9441;51.420;7.036;2023-06-01T00:20:21;11.07;;;4.72;;
18623;SDS011;9441;51.420;7.036;2023-06-01T00:21:24;15.68;;;4.47;;
18623;SDS011;9441;51.420;7.036;2023-06-01T00:22:27;12.85;;;4.70;;
18623;SDS011;9441;51.420;7.036;2023-06-01T00:23:29;16.63;;;4.78;;
18623;SDS011;9441;51.420;7.036;2023-06-01T00:24:31;9.55;;;4.70;;
18623;SDS011;9441;51.420;7.036;2023-06-01T00:25:33;7.97;;;4.57;;
18623;SDS011;9441;51.420;7.036;2023-06-01T00:26:35;9.75;;;4.78;;
18623;SDS011;9441;51.420;7.036;2023-06-01T00:27:37;11.80;;;4.97;;
18623;SDS011;9441;51.420;7.036;2023-06-01T00:28:39;8.95;;;4.93;;
18623;SDS011;9441;51.420;7.036;2023-06-01T00:29:40;10.00;;;4.97;;
18623;SDS011;9441;51.420;7.036;2023-06-01T00:30:43;15.93;;;5.28;;
18623;SDS011;9441;51.420;7.036;2023-06-01T00:31:44;17.50;;;5.68;;
18623;SDS011;9441;51.420;7.036;2023-06-01T00:32:46;14.70;;;5.68;;
18623;SDS011;9441;51.420;7.036;2023-06-01T00:33:48;9.68;;;5.00;;
18623;SDS011;9441;51.420;7.036;2023-06-01T00:34:51;11.13;;;5.30;;
18623;SDS011;9441;51.420;7.036;2023-06-01T00:35:53;10.65;;;5.25;;
18623;SDS011;9441;51.420;7.036;2023-06-01T00:36:55;13.32;;;5.65;;
18623;SDS011;9441;51.420;7.036;2023-06-01T00:37:57;12.60;;;5.45;;
18623;SDS011;9441;51.420;7.036;2023-06-01T00:38:59;12.82;;;5.30;;
18623;SDS011;9441;51.420;7.036;2023-06-01T00:40:05;11.35;;;5.28;;
18623;SDS011;9441;51.420;7.036;2023-06-01T00:41:08;9.88;;;5.28;;
18623;SDS011;9441;51.420;7.036;2023-06-01T00:42:09;10.93;;;5.47;;
18623;SDS011;9441;51.420;7.036;2023-06-01T00:43:12;8.48;;;5.15;;
18623;SDS011;9441;51.420;7.036;2023-06-01T00:44:13;11.82;;;5.40;;
18623;SDS011;9441;51.420;7.036;2023-06-01T00:45:15;12.38;;;5.75;;
18623;SDS011;9441;51.420;7.036;2023-06-01T00:46:17;10.35;;;5.18;;
18623;SDS011;9441;51.420;7.036;2023-06-01T00:47:19;8.15;;;5.03;;
18623;SDS011;9441;51.420;7.036;2023-06-01T00:48:22;10.30;;;5.80;;
18623;SDS011;9441;51.420;7.036;2023-06-01T00:49:24;13.88;;;6.05;;
18623;SDS011;9441;51.420;7.036;2023-06-01T00:50:27;10.13;;;5.65;;
18623;SDS011;9441;51.420;7.036;2023-06-01T00:51:29;9.13;;;5.90;;
18623;SDS011;9441;51.420;7.036;2023-06-01T00:52:33;13.77;;;5.40;;
18623;SDS011;9441;51.420;7.036;2023-06-01T00:53:35;17.48;;;6.07;;
18623;SDS011;9441;51.420;7.036;2023-06-01T00:54:36;12.07;;;6.03;;
18623;SDS011;9441;51.420;7.036;2023-06-01T00:55:39;11.38;;;5.45;;
18623;SDS011;9441;51.420;7.036;2023-06-01T00:56:40;11.70;;;5.78;;
18623;SDS011;9441;51.420;7.036;2023-06-01T00:57:43;14.07;;;5.80;;
18623;SDS011;9441;51.420;7.036;2023-06-01T00:58:44;14.63;;;6.30;;
18623;SDS011;9441;51.420;7.036;2023-06-01T00:59:47;13.70;;;6.40;;
18623;SDS011;9441;51.420;7.036;2023-06-01T01:00:49;12.70;;;6.40;;
18623;SDS011;9441;51.420;7.036;2023-06-01T01:01:53;14.07;;;5.85;;
18623;SDS011;9441;51.420;7.036;2023-06-01T01:02:55;11.60;;;5.60;;
18623;SDS011;9441;51.420;7.036;2023-06-01T01:04:00;19.55;;;6.38;;
18623;SDS011;9441;51.420;7.036;2023-06-01T01:05:02;14.80;;;6.28;;
18623;SDS011;9441;51.420;7.036;2023-06-01T01:06:14;22.38;;;6.25;;
18623;SDS011;9441;51.420;7.036;2023-06-01T01:07:25;12.93;;;6.38;;
18623;SDS011;9441;51.420;7.036;2023-06-01T01:08:34;12.80;;;5.97;;
18623;SDS011;9441;51.420;7.036;2023-06-01T01:09:39;11.55;;;5.82;;
18623;SDS011;9441;51.420;7.036;2023-06-01T01:10:45;12.63;;;6.25;;
18623;SDS011;9441;51.420;7.036;2023-06-01T01:11:50;9.90;;;5.88;;
18623;SDS011;9441;51.420;7.036;2023-06-01T01:12:54;14.45;;;6.47;;
18623;SDS011;9441;51.420;7.036;2023-06-01T01:13:58;10.95;;;5.82;;
18623;SDS011;9441;51.420;7.036;2023-06-01T01:15:04;12.18;;;6.55;;
18623;SDS011;9441;51.420;7.036;2023-06-01T01:16:11;15.77;;;6.57;;
18623;SDS011;9441;51.420;7.036;2023-06-01T01:17:18;12.77;;;6.70;;
18623;SDS011;9441;51.420;7.036;2023-06-01T01:18:25;14.48;;;6.22;;
18623;SDS011;9441;51.420;7.036;2023-06-01T01:19:42;12.60;;;6.25;;
18623;SDS011;9441;51.420;7.036;2023-06-01T01:20:48;13.02;;;6.05;;
18623;SDS011;9441;51.420;7.036;2023-06-01T01:21:54;11.07;;;6.10;;
18623;SDS011;9441;51.420;7.036;2023-06-01T01:23:02;14.45;;;7.15;;
18623;SDS011;9441;51.420;7.036;2023-06-01T01:24:15;18.50;;;6.88;;
18623;SDS011;9441;51.420;7.036;2023-06-01T01:25:25;13.63;;;6.78;;
18623;SDS011;9441;51.420;7.036;2023-06-01T01:26:39;14.85;;;7.03;;
18623;SDS011;9441;51.420;7.036;2023-06-01T01:27:45;15.38;;;6.75;;
18623;SDS011;9441;51.420;7.036;2023-06-01T01:28:56;21.50;;;7.78;;
18623;SDS011;9441;51.420;7.036;2023-06-01T01:29:58;14.10;;;6.95;;
18623;SDS011;9441;51.420;7.036;2023-06-01T01:31:04;12.80;;;6.40;;
18623;SDS011;9441;51.420;7.036;2023-06-01T01:32:06;16.05;;;7.07;;
18623;SDS011;9441;51.420;7.036;2023-06-01T01:33:09;14.65;;;7.03;;
18623;SDS011;9441;51.420;7.036;2023-06-01T01:34:11;13.18;;;6.85;;
18623;SDS011;9441;51.420;7.036;2023-06-01T01:35:13;17.00;;;7.05;;
18623;SDS011;9441;51.420;7.036;2023-06-01T01:36:15;16.98;;;7.40;;
18623;SDS011;9441;51.420;7.036;2023-06-01T01:37:19;16.63;;;6.95;;
18623;SDS011;9441;51.420;7.036;2023-06-01T01:38:23;13.93;;;7.03;;
18623;SDS011;9441;51.420;7.036;2023-06-01T01:39:25;14.25;;;7.30;;
18623;SDS011;9441;51.420;7.036;2023-06-01T01:40:27;16.88;;;7.53;;
18623;SDS011;9441;51.420;7.036;2023-06-01T01:41:29;13.82;;;6.97;;
18623;SDS011;9441;51.420;7.036;2023-06-01T01:42:31;16.92;;;6.97;;
18623;SDS011;9441;51.420;7.036;2023-06-01T01:43:33;16.25;;;7.00;;
18623;SDS011;9441;51.420;7.036;2023-06-01T01:44:36;12.55;;;7.55;;
18623;SDS011;9441;51.420;7.036;2023-06-01T01:45:39;13.75;;;7.00;;
18623;SDS011;9441;51.420;7.036;2023-06-01T01:46:41;14.50;;;7.60;;
18623;SDS011;9441;51.420;7.036;2023-06-01T01:47:49;15.95;;;7.70;;
18623;SDS011;9441;51.420;7.036;2023-06-01T01:48:54;14.85;;;7.30;;
18623;SDS011;9441;51.420;7.036;2023-06-01T01:49:58;13.82;;;7.47;;
18623;SDS011;9441;51.420;7.036;2023-06-01T01:51:01;15.65;;;6.75;;
18623;SDS011;9441;51.420;7.036;2023-06-01T01:52:05;14.30;;;7.63;;
18623;SDS011;9441;51.420;7.036;2023-06-01T01:53:09;16.98;;;7.60;;
18623;SDS011;9441;51.420;7.036;2023-06-01T01:54:12;13.10;;;6.90;;
18623;SDS011;9441;51.420;7.036;2023-06-01T01:55:14;13.63;;;7.40;;
18623;SDS011;9441;51.420;7.036;2023-06-01T01:56:18;14.25;;;7.32;;
18623;SDS011;9441;51.420;7.036;2023-06-01T01:57:19;15.40;;;7.63;;
18623;SDS011;9441;51.420;7.036;2023-06-01T01:58:24;18.23;;;7.38;;
18623;SDS011;9441;51.420;7.036;2023-06-01T01:59:27;14.63;;;7.15;;
18623;SDS011;9441;51.420;7.036;2023-06-01T02:00:30;13.82;;;7.53;;
18623;SDS011;9441;51.420;7.036;2023-06-01T02:01:32;15.82;;;8.13;;
18623;SDS011;9441;51.420;7.036;2023-06-01T02:02:35;15.83;;;7.93;;
18623;SDS011;9441;51.420;7.036;2023-06-01T02:03:36;14.45;;;7.88;;
18623;SDS011;9441;51.420;7.036;2023-06-01T02:04:39;19.45;;;8.43;;
18623;SDS011;9441;51.420;7.036;2023-06-01T02:05:41;20.45;;;8.93;;
18623;SDS011;9441;51.420;7.036;2023-06-01T02:06:44;20.85;;;8.57;;
18623;SDS011;9441;51.420;7.036;2023-06-01T02:07:47;17.88;;;8.60;;
18623;SDS011;9441;51.420;7.036;2023-06-01T02:08:50;18.58;;;9.27;;
18623;SDS011;9441;51.420;7.036;2023-06-01T02:09:51;17.27;;;9.05;;
18623;SDS011;9441;51.420;7.036;2023-06-01T02:10:53;16.25;;;8.48;;
18623;SDS011;9441;51.420;7.036;2023-06-01T02:11:55;17.67;;;8.35;;
18623;SDS011;9441;51.420;7.036;2023-06-01T02:12:57;21.80;;;9.27;;
18623;SDS011;9441;51.420;7.036;2023-06-01T02:13:58;17.55;;;9.00;;
18623;SDS011;9441;51.420;7.036;2023-06-01T02:15:00;16.77;;;9.02;;
18623;SDS011;9441;51.420;7.036;2023-06-01T02:16:04;18.17;;;9.48;;
18623;SDS011;9441;51.420;7.036;2023-06-01T02:17:07;17.23;;;8.87;;
18623;SDS011;9441;51.420;7.036;2023-06-01T02:18:08;16.15;;;8.70;;
18623;SDS011;9441;51.420;7.036;2023-06-01T02:19:11;20.80;;;8.80;;
18623;SDS011;9441;51.420;7.036;2023-06-01T02:20:15;18.95;;;9.30;;
18623;SDS011;9441;51.420;7.036;2023-06-01T02:21:18;21.88;;;9.23;;
18623;SDS011;9441;51.420;7.036;2023-06-01T02:22:19;17.45;;;9.55;;
18623;SDS011;9441;51.420;7.036;2023-06-01T02:23:21;21.05;;;9.68;;
18623;SDS011;9441;51.420;7.036;2023-06-01T02:24:22;20.87;;;10.30;;
18623;SDS011;9441;51.420;7.036;2023-06-01T02:25:25;20.73;;;10.57;;
18623;SDS011;9441;51.420;7.036;2023-06-01T02:26:26;17.93;;;9.53;;
18623;SDS011;9441;51.420;7.036;2023-06-01T02:27:28;16.77;;;9.93;;
18623;SDS011;9441;51.420;7.036;2023-06-01T02:28:30;18.42;;;9.35;;
18623;SDS011;9441;51.420;7.036;2023-06-01T02:29:32;21.57;;;10.13;;
18623;SDS011;9441;51.420;7.036;2023-06-01T02:30:34;21.17;;;9.53;;
18623;SDS011;9441;51.420;7.036;2023-06-01T02:31:38;21.58;;;10.27;;
18623;SDS011;9441;51.420;7.036;2023-06-01T02:32:39;18.53;;;9.67;;
18623;SDS011;9441;51.420;7.036;2023-06-01T02:33:45;22.03;;;9.80;;
18623;SDS011;9441;51.420;7.036;2023-06-01T02:34:47;20.88;;;10.27;;
18623;SDS011;9441;51.420;7.036;2023-06-01T02:35:49;21.37;;;10.27;;
18623;SDS011;9441;51.420;7.036;2023-06-01T02:36:50;19.20;;;10.10;;
18623;SDS011;9441;51.420;7.036;2023-06-01T02:37:55;20.80;;;10.37;;
18623;SDS011;9441;51.420;7.036;2023-06-01T02:38:57;19.30;;;9.57;;
18623;SDS011;9441;51.420;7.036;2023-06-01T02:39:59;22.10;;;10.40;;
18623;SDS011;9441;51.420;7.036;2023-06-01T02:41:01;22.27;;;10.10;;
18623;SDS011;9441;51.420;7.036;2023-06-01T02:42:03;21.93;;;9.93;;
18623;SDS011;9441;51.420;7.036;2023-06-01T02:43:05;20.37;;;10.53;;
18623;SDS011;9441;51.420;7.036;2023-06-01T02:44:08;21.23;;;9.90;;
18623;SDS011;9441;51.420;7.036;2023-06-01T02:45:09;23.83;;;10.57;;
18623;SDS011;9441;51.420;7.036;2023-06-01T02:46:11;24.50;;;10.57;;
18623;SDS011;9441;51.420;7.036;2023-06-01T02:47:15;18.70;;;9.97;;
18623;SDS011;9441;51.420;7.036;2023-06-01T02:48:18;19.00;;;10.13;;
18623;SDS011;9441;51.420;7.036;2023-06-01T02:49:19;22.83;;;10.30;;
18623;SDS011;9441;51.420;7.036;2023-06-01T02:50:21;23.17;;;10.50;;
18623;SDS011;9441;51.420;7.036;2023-06-01T02:51:25;21.50;;;10.50;;
18623;SDS011;9441;51.420;7.036;2023-06-01T02:52:38;23.63;;;10.80;;
18623;SDS011;9441;51.420;7.036;2023-06-01T02:53:40;21.53;;;11.30;;
18623;SDS011;9441;51.420;7.036;2023-06-01T02:54:44;23.77;;;10.40;;
18623;SDS011;9441;51.420;7.036;2023-06-01T02:56:04;21.10;;;10.50;;
18623;SDS011;9441;51.420;7.036;2023-06-01T02:57:16;25.30;;;10.60;;
18623;SDS011;9441;51.420;7.036;2023-06-01T02:58:22;25.70;;;10.60;;
18623;SDS011;9441;51.420;7.036;2023-06-01T02:59:43;20.77;;;10.50;;
18623;SDS011;9441;51.420;7.036;2023-06-01T03:00:45;20.80;;;11.30;;
18623;SDS011;9441;51.420;7.036;2023-06-01T03:01:47;25.97;;;10.67;;
18623;SDS011;9441;51.420;7.036;2023-06-01T03:02:50;22.63;;;10.53;;
18623;SDS011;9441;51.420;7.036;2023-06-01T03:03:53;22.67;;;11.70;;
18623;SDS011;9441;51.420;7.036;2023-06-01T03:04:55;27.33;;;11.30;;
18623;SDS011;9441;51.420;7.036;2023-06-01T03:05:57;20.97;;;11.37;;
18623;SDS011;9441;51.420;7.036;2023-06-01T03:07:25;21.10;;;10.80;;
18623;SDS011;9441;51.420;7.036;2023-06-01T03:08:30;23.43;;;10.70;;
18623;SDS011;9441;51.420;7.036;2023-06-01T03:09:32;24.93;;;11.13;;
18623;SDS011;9441;51.420;7.036;2023-06-01T03:10:40;24.00;;;10.83;;
18623;SDS011;9441;51.420;7.036;2023-06-01T03:11:46;22.10;;;11.23;;
18623;SDS011;9441;51.420;7.036;2023-06-01T03:12:49;21.30;;;11.00;;
18623;SDS011;9441;51.420;7.036;2023-06-01T03:13:51;25.97;;;10.70;;
18623;SDS011;9441;51.420;7.036;2023-06-01T03:14:53;25.33;;;10.73;;
18623;SDS011;9441;51.420;7.036;2023-06-01T03:15:55;23.43;;;10.73;;
18623;SDS011;9441;51.420;7.036;2023-06-01T03:16:57;22.63;;;11.13;;
18623;SDS011;9441;51.420;7.036;2023-06-01T03:18:00;19.53;;;10.97;;
18623;SDS011;9441;51.420;7.036;2023-06-01T03:19:03;21.73;;;10.90;;
18623;SDS011;9441;51.420;7.036;2023-06-01T03:20:05;26.17;;;11.93;;
18623;SDS011;9441;51.420;7.036;2023-06-01T03:21:15;24.37;;;10.90;;
18623;SDS011;9441;51.420;7.036;2023-06-01T03:22:16;24.77;;;12.40;;
18623;SDS011;9441;51.420;7.036;2023-06-01T03:23:19;24.53;;;12.60;;
18623;SDS011;9441;51.420;7.036;2023-06-01T03:24:21;26.90;;;12.40;;
18623;SDS011;9441;51.420;7.036;2023-06-01T03:25:28;23.80;;;12.43;;
18623;SDS011;9441;51.420;7.036;2023-06-01T03:26:29;26.87;;;12.77;;
18623;SDS011;9441;51.420;7.036;2023-06-01T03:27:32;28.47;;;13.37;;
18623;SDS011;9441;51.420;7.036;2023-06-01T03:28:33;26.53;;;12.60;;
18623;SDS011;9441;51.420;7.036;2023-06-01T03:29:36;25.97;;;13.13;;
18623;SDS011;9441;51.420;7.036;2023-06-01T03:30:37;26.73;;;13.27;;
18623;SDS011;9441;51.420;7.036;2023-06-01T03:31:40;24.33;;;13.57;;
18623;SDS011;9441;51.420;7.036;2023-06-01T03:32:42;29.10;;;13.87;;
18623;SDS011;9441;51.420;7.036;2023-06-01T03:33:46;30.30;;;14.10;;
18623;SDS011;9441;51.420;7.036;2023-06-01T03:34:48;27.57;;;13.53;;
18623;SDS011;9441;51.420;7.036;2023-06-01T03:35:50;30.07;;;13.87;;
18623;SDS011;9441;51.420;7.036;2023-06-01T03:36:51;25.30;;;13.17;;
18623;SDS011;9441;51.420;7.036;2023-06-01T03:37:54;33.90;;;14.93;;
18623;SDS011;9441;51.420;7.036;2023-06-01T03:38:55;30.67;;;14.77;;
18623;SDS011;9441;51.420;7.036;2023-06-01T03:40:00;30.03;;;14.10;;
18623;SDS011;9441;51.420;7.036;2023-06-01T03:41:06;30.77;;;14.23;;
18623;SDS011;9441;51.420;7.036;2023-06-01T03:42:08;31.67;;;14.07;;
18623;SDS011;9441;51.420;7.036;2023-06-01T03:43:11;28.23;;;13.90;;
18623;SDS011;9441;51.420;7.036;2023-06-01T03:44:15;23.70;;;13.87;;
18623;SDS011;9441;51.420;7.036;2023-06-01T03:45:18;27.20;;;14.10;;
18623;SDS011;9441;51.420;7.036;2023-06-01T03:46:21;32.97;;;14.50;;
18623;SDS011;9441;51.420;7.036;2023-06-01T03:47:22;25.80;;;13.40;;
18623;SDS011;9441;51.420;7.036;2023-06-01T03:48:26;31.30;;;14.37;;
18623;SDS011;9441;51.420;7.036;2023-06-01T03:49:29;31.33;;;14.83;;
18623;SDS011;9441;51.420;7.036;2023-06-01T03:50:32;29.80;;;14.20;;
18623;SDS011;9441;51.420;7.036;2023-06-01T03:51:34;28.80;;;13.50;;
18623;SDS011;9441;51.420;7.036;2023-06-01T03:52:37;26.87;;;14.40;;
18623;SDS011;9441;51.420;7.036;2023-06-01T03:53:39;29.30;;;15.00;;
18623;SDS011;9441;51.420;7.036;2023-06-01T03:54:41;31.60;;;14.50;;
18623;SDS011;9441;51.420;7.036;2023-06-01T03:55:54;29.50;;;14.33;;
18623;SDS011;9441;51.420;7.036;2023-06-01T03:57:09;28.67;;;13.60;;
18623;SDS011;9441;51.420;7.036;2023-06-01T03:58:10;31.03;;;14.87;;
18623;SDS011;9441;51.420;7.036;2023-06-01T03:59:13;30.63;;;14.00;;
18623;SDS011;9441;51.420;7.036;2023-06-01T04:00:15;30.47;;;14.77;;
18623;SDS011;9441;51.420;7.036;2023-06-01T04:01:26;30.87;;;14.50;;
18623;SDS011;9441;51.420;7.036;2023-06-01T04:02:29;27.93;;;14.47;;
18623;SDS011;9441;51.420;7.036;2023-06-01T04:03:32;29.07;;;14.33;;
18623;SDS011;9441;51.420;7.036;2023-06-01T04:04:35;24.87;;;14.10;;
18623;SDS011;9441;51.420;7.036;2023-06-01T04:05:37;31.57;;;14.60;;
18623;SDS011;9441;51.420;7.036;2023-06-01T04:06:39;31.37;;;15.23;;
18623;SDS011;9441;51.420;7.036;2023-06-01T04:07:46;34.23;;;15.70;;
18623;SDS011;9441;51.420;7.036;2023-06-01T04:08:48;27.93;;;14.63;;
18623;SDS011;9441;51.420;7.036;2023-06-01T04:09:55;31.40;;;14.73;;
18623;SDS011;9441;51.420;7.036;2023-06-01T04:10:56;30.07;;;15.27;;
18623;SDS011;9441;51.420;7.036;2023-06-01T04:11:59;31.17;;;14.37;;
18623;SDS011;9441;51.420;7.036;2023-06-01T04:13:01;29.30;;;14.27;;
18623;SDS011;9441;51.420;7.036;2023-06-01T04:14:04;30.07;;;14.30;;
18623;SDS011;9441;51.420;7.036;2023-06-01T04:15:07;32.57;;;15.00;;
18623;SDS011;9441;51.420;7.036;2023-06-01T04:16:09;28.80;;;15.23;;
18623;SDS011;9441;51.420;7.036;2023-06-01T04:17:12;30.97;;;14.57;;
18623;SDS011;9441;51.420;7.036;2023-06-01T04:18:15;32.10;;;14.73;;
18623;SDS011;9441;51.420;7.036;2023-06-01T04:19:25;30.13;;;14.47;;
18623;SDS011;9441;51.420;7.036;2023-06-01T04:20:34;28.77;;;15.17;;
18623;SDS011;9441;51.420;7.036;2023-06-01T04:21:36;32.47;;;15.40;;
18623;SDS011;9441;51.420;7.036;2023-06-01T04:24:07;31.40;;;13.83;;
18623;SDS011;9441;51.420;7.036;2023-06-01T04:25:10;30.53;;;14.03;;
18623;SDS011;9441;51.420;7.036;2023-06-01T04:26:13;24.97;;;13.83;;
18623;SDS011;9441;51.420;7.036;2023-06-01T04:27:14;27.40;;;13.53;;
18623;SDS011;9441;51.420;7.036;2023-06-01T04:28:17;25.60;;;13.90;;
18623;SDS011;9441;51.420;7.036;2023-06-01T04:29:18;26.93;;;13.47;;
18623;SDS011;9441;51.420;7.036;2023-06-01T04:30:21;28.63;;;14.10;;
18623;SDS011;9441;51.420;7.036;2023-06-01T04:31:23;28.90;;;13.90;;
18623;SDS011;9441;51.420;7.036;2023-06-01T04:32:25;26.73;;;13.77;;
18623;SDS011;9441;51.420;7.036;2023-06-01T04:33:28;25.23;;;13.20;;
18623;SDS011;9441;51.420;7.036;2023-06-01T04:34:30;28.93;;;13.50;;
18623;SDS011;9441;51.420;7.036;2023-06-01T04:35:34;27.23;;;14.23;;
18623;SDS011;9441;51.420;7.036;2023-06-01T04:36:37;29.47;;;13.23;;
18623;SDS011;9441;51.420;7.036;2023-06-01T04:37:40;23.43;;;13.40;;
18623;SDS011;9441;51.420;7.036;2023-06-01T04:38:43;25.63;;;13.87;;
18623;SDS011;9441;51.420;7.036;2023-06-01T04:39:51;27.63;;;13.70;;
18623;SDS011;9441;51.420;7.036;2023-06-01T04:40:52;29.30;;;13.97;;
18623;SDS011;9441;51.420;7.036;2023-06-01T04:41:56;28.77;;;13.60;;
18623;SDS011;9441;51.420;7.036;2023-06-01T04:42:57;27.93;;;13.60;;
18623;SDS011;9441;51.420;7.036;2023-06-01T04:44:03;26.20;;;13.70;;
18623;SDS011;9441;51.420;7.036;2023-06-01T04:45:07;23.20;;;13.00;;
18623;SDS011;9441;51.420;7.036;2023-06-01T04:46:10;24.53;;;13.33;;
18623;SDS011;9441;51.420;7.036;2023-06-01T04:47:12;27.80;;;13.77;;
18623;SDS011;9441;51.420;7.036;2023-06-01T04:48:19;26.03;;;13.80;;
18623;SDS011;9441;51.420;7.036;2023-06-01T04:49:31;28.90;;;13.60;;
18623;SDS011;9441;51.420;7.036;2023-06-01T04:50:36;29.30;;;13.57;;
18623;SDS011;9441;51.420;7.036;2023-06-01T04:51:37;26.43;;;13.27;;
18623;SDS011;9441;51.420;7.036;2023-06-01T04:52:40;26.27;;;14.13;;
18623;SDS011;9441;51.420;7.036;2023-06-01T04:53:41;26.87;;;13.90;;
18623;SDS011;9441;51.420;7.036;2023-06-01T04:54:44;25.00;;;13.77;;
18623;SDS011;9441;51.420;7.036;2023-06-01T04:55:46;32.47;;;14.80;;
18623;SDS011;9441;51.420;7.036;2023-06-01T04:56:48;25.67;;;13.87;;
18623;SDS011;9441;51.420;7.036;2023-06-01T04:57:51;25.33;;;13.73;;
18623;SDS011;9441;51.420;7.036;2023-06-01T04:58:54;31.27;;;14.60;;
18623;SDS011;9441;51.420;7.036;2023-06-01T04:59:55;28.27;;;13.93;;
18623;SDS011;9441;51.420;7.036;2023-06-01T05:00:58;25.27;;;13.23;;
18623;SDS011;9441;51.420;7.036;2023-06-01T05:02:00;22.13;;;13.10;;
18623;SDS011;9441;51.420;7.036;2023-06-01T05:03:03;29.50;;;14.67;;
18623;SDS011;9441;51.420;7.036;2023-06-01T05:04:04;31.43;;;14.17;;
18623;SDS011;9441;51.420;7.036;2023-06-01T05:05:07;28.43;;;13.73;;
18623;SDS011;9441;51.420;7.036;2023-06-01T05:06:10;28.70;;;13.67;;
18623;SDS011;9441;51.420;7.036;2023-06-01T05:07:15;24.53;;;13.57;;
18623;SDS011;9441;51.420;7.036;2023-06-01T05:08:16;21.37;;;12.80;;
18623;SDS011;9441;51.420;7.036;2023-06-01T05:09:19;26.00;;;13.17;;
18623;SDS011;9441;51.420;7.036;2023-06-01T05:10:20;24.60;;;13.30;;
18623;SDS011;9441;51.420;7.036;2023-06-01T05:11:22;28.27;;;13.97;;
18623;SDS011;9441;51.420;7.036;2023-06-01T05:12:24;27.47;;;13.83;;
18623;SDS011;9441;51.420;7.036;2023-06-01T05:13:27;25.37;;;13.57;;
18623;SDS011;9441;51.420;7.036;2023-06-01T05:14:28;22.70;;;13.40;;
18623;SDS011;9441;51.420;7.036;2023-06-01T05:15:30;31.00;;;14.17;;
18623;SDS011;9441;51.420;7.036;2023-06-01T05:16:32;23.70;;;12.43;;
18623;SDS011;9441;51.420;7.036;2023-06-01T05:17:36;26.03;;;13.57;;
18623;SDS011;9441;51.420;7.036;2023-06-01T05:18:43;29.03;;;13.60;;
18623;SDS011;9441;51.420;7.036;2023-06-01T05:19:46;26.17;;;13.53;;
18623;SDS011;9441;51.420;7.036;2023-06-01T05:20:48;28.20;;;12.83;;
18623;SDS011;9441;51.420;7.036;2023-06-01T05:21:52;30.57;;;13.97;;
18623;SDS011;9441;51.420;7.036;2023-06-01T05:22:53;26.33;;;12.90;;
18623;SDS011;9441;51.420;7.036;2023-06-01T05:23:56;30.23;;;14.30;;
18623;SDS011;9441;51.420;7.036;2023-06-01T05:24:58;26.00;;;13.23;;
18623;SDS011;9441;51.420;7.036;2023-06-01T05:26:01;30.43;;;14.67;;
18623;SDS011;9441;51.420;7.036;2023-06-01T05:27:06;35.93;;;15.93;;
18623;SDS011;9441;51.420;7.036;2023-06-01T05:28:09;26.73;;;13.93;;
18623;SDS011;9441;51.420;7.036;2023-06-01T05:29:12;30.43;;;14.50;;
18623;SDS011;9441;51.420;7.036;2023-06-01T05:30:15;32.33;;;14.73;;
18623;SDS011;9441;51.420;7.036;2023-06-01T05:31:19;28.40;;;14.33;;
18623;SDS011;9441;51.420;7.036;2023-06-01T05:32:26;28.73;;;14.00;;
18623;SDS011;9441;51.420;7.036;2023-06-01T05:33:32;27.43;;;14.67;;
18623;SDS011;9441;51.420;7.036;2023-06-01T05:34:34;23.53;;;13.50;;
18623;SDS011;9441;51.420;7.036;2023-06-01T05:35:36;26.77;;;13.70;;
18623;SDS011;9441;51.420;7.036;2023-06-01T05:36:40;26.33;;;14.13;;
18623;SDS011;9441;51.420;7.036;2023-06-01T05:37:43;26.90;;;13.43;;
18623;SDS011;9441;51.420;7.036;2023-06-01T05:38:45;25.47;;;12.90;;
18623;SDS011;9441;51.420;7.036;2023-06-01T05:39:47;28.87;;;14.00;;
18623;SDS011;9441;51.420;7.036;2023-06-01T05:40:50;24.23;;;13.47;;
18623;SDS011;9441;51.420;7.036;2023-06-01T05:41:51;24.73;;;14.47;;
18623;SDS011;9441;51.420;7.036;2023-06-01T05:42:54;25.53;;;14.33;;
18623;SDS011;9441;51.420;7.036;2023-06-01T05:43:55;29.93;;;13.73;;
18623;SDS011;9441;51.420;7.036;2023-06-01T05:44:58;26.77;;;13.50;;
18623;SDS011;9441;51.420;7.036;2023-06-01T05:45:59;33.17;;;14.17;;
18623;SDS011;9441;51.420;7.036;2023-06-01T05:47:02;31.27;;;14.13;;
18623;SDS011;9441;51.420;7.036;2023-06-01T05:48:03;24.87;;;13.77;;
18623;SDS011;9441;51.420;7.036;2023-06-01T05:49:06;28.37;;;14.37;;
18623;SDS011;9441;51.420;7.036;2023-06-01T05:50:08;28.47;;;14.80;;
18623;SDS011;9441;51.420;7.036;2023-06-01T05:51:11;30.87;;;14.53;;
18623;SDS011;9441;51.420;7.036;2023-06-01T05:52:12;26.87;;;13.90;;
18623;SDS011;9441;51.420;7.036;2023-06-01T05:53:17;26.17;;;13.30;;
18623;SDS011;9441;51.420;7.036;2023-06-01T05:54:18;29.27;;;13.97;;
18623;SDS011;9441;51.420;7.036;2023-06-01T05:55:21;28.00;;;13.70;;
18623;SDS011;9441;51.420;7.036;2023-06-01T05:56:22;24.83;;;13.73;;
18623;SDS011;9441;51.420;7.036;2023-06-01T05:57:26;23.47;;;13.07;;
18623;SDS011;9441;51.420;7.036;2023-06-01T05:58:28;24.60;;;13.43;;
18623;SDS011;9441;51.420;7.036;2023-06-01T05:59:31;26.10;;;12.93;;
18623;SDS011;9441;51.420;7.036;2023-06-01T06:00:33;25.73;;;13.70;;
18623;SDS011;9441;51.420;7.036;2023-06-01T06:01:36;24.20;;;13.27;;
18623;SDS011;9441;51.420;7.036;2023-06-01T06:02:38;23.37;;;12.80;;
18623;SDS011;9441;51.420;7.036;2023-06-01T06:03:42;24.00;;;13.33;;
18623;SDS011;9441;51.420;7.036;2023-06-01T06:04:45;23.77;;;12.73;;
18623;SDS011;9441;51.420;7.036;2023-06-01T06:05:48;26.10;;;13.00;;
18623;SDS011;9441;51.420;7.036;2023-06-01T06:06:49;26.00;;;14.27;;
18623;SDS011;9441;51.420;7.036;2023-06-01T06:07:52;20.53;;;12.50;;
18623;SDS011;9441;51.420;7.036;2023-06-01T06:08:55;24.17;;;13.03;;
18623;SDS011;9441;51.420;7.036;2023-06-01T06:09:57;25.73;;;12.27;;
18623;SDS011;9441;51.420;7.036;2023-06-01T06:10:59;22.43;;;12.43;;
18623;SDS011;9441;51.420;7.036;2023-06-01T06:12:01;25.43;;;12.80;;
18623;SDS011;9441;51.420;7.036;2023-06-01T06:13:02;26.93;;;13.10;;
18623;SDS011;9441;51.420;7.036;2023-06-01T06:14:05;20.53;;;11.60;;
18623;SDS011;9441;51.420;7.036;2023-06-01T06:15:07;23.07;;;12.37;;
18623;SDS011;9441;51.420;7.036;2023-06-01T06:16:09;24.47;;;12.17;;
18623;SDS011;9441;51.420;7.036;2023-06-01T06:17:10;25.63;;;11.80;;
18623;SDS011;9441;51.420;7.036;2023-06-01T06:18:13;28.73;;;12.83;;
18623;SDS011;9441;51.420;7.036;2023-06-01T06:19:14;23.17;;;12.67;;
18623;SDS011;9441;51.420;7.036;2023-06-01T06:20:16;28.43;;;11.57;;